Algood, Tennessee
Current Conditions -  °F | °C
As of 8:35 AM on Monday 24 Nov 2014 (Local Time) from KSRB Reporting Station
Scattered Clouds Scattered Clouds  
Wind Chill: 63°   Ceiling: Unl
Heat Index: 63°   Visibility: 10mi
Dew Point: 52°   Wind: 13mph
Humidity: 68%   Direction: 240°WSW
Pressure: 29.66"   Gusts: NA
Location:  36.1802°N, 85.4582°W
Report Text: KSRB 241435Z AUTO 24011KT 10SM FEW039 SCT047 17/11 A2966 RMK
Loading
Personal Weather Stations






























Interactive Weather Map New forecast layout! Learn more

10-Day Weather Forecast

Advertisements
Track Severe Weather on mobile